sensor_id;sensor_type;location;lat;lon;timestamp;P1;durP1;ratioP1;P2;durP2;ratioP2
54307;SDS011;40208;39.778;2.710;2022-09-20T00:02:21;9.60;;;2.63;;
54307;SDS011;40208;39.778;2.710;2022-09-20T00:05:12;4.28;;;2.20;;
54307;SDS011;40208;39.778;2.710;2022-09-20T00:08:04;6.43;;;2.22;;
54307;SDS011;40208;39.778;2.710;2022-09-20T00:10:58;5.72;;;2.53;;
54307;SDS011;40208;39.778;2.710;2022-09-20T00:13:57;4.33;;;1.83;;
54307;SDS011;40208;39.778;2.710;2022-09-20T00:16:49;6.60;;;2.00;;
54307;SDS011;40208;39.778;2.710;2022-09-20T00:19:40;6.03;;;1.85;;
54307;SDS011;40208;39.778;2.710;2022-09-20T00:22:31;8.60;;;2.33;;
54307;SDS011;40208;39.778;2.710;2022-09-20T00:25:22;7.25;;;1.90;;
54307;SDS011;40208;39.778;2.710;2022-09-20T00:28:13;3.17;;;2.00;;
54307;SDS011;40208;39.778;2.710;2022-09-20T00:31:04;6.10;;;2.13;;
54307;SDS011;40208;39.778;2.710;2022-09-20T00:33:55;7.40;;;1.95;;
54307;SDS011;40208;39.778;2.710;2022-09-20T00:37:06;9.32;;;2.25;;
54307;SDS011;40208;39.778;2.710;2022-09-20T00:39:57;8.68;;;2.50;;
54307;SDS011;40208;39.778;2.710;2022-09-20T00:42:48;8.63;;;2.90;;
54307;SDS011;40208;39.778;2.710;2022-09-20T00:45:39;4.10;;;1.95;;
54307;SDS011;40208;39.778;2.710;2022-09-20T00:48:30;3.63;;;2.10;;
54307;SDS011;40208;39.778;2.710;2022-09-20T00:51:24;3.85;;;1.95;;
54307;SDS011;40208;39.778;2.710;2022-09-20T00:54:19;7.05;;;2.10;;
54307;SDS011;40208;39.778;2.710;2022-09-20T00:57:19;6.40;;;2.20;;
54307;SDS011;40208;39.778;2.710;2022-09-20T01:00:10;3.60;;;2.22;;
54307;SDS011;40208;39.778;2.710;2022-09-20T01:03:03;6.20;;;2.03;;
54307;SDS011;40208;39.778;2.710;2022-09-20T01:05:58;5.07;;;2.08;;
54307;SDS011;40208;39.778;2.710;2022-09-20T01:08:53;4.55;;;2.42;;
54307;SDS011;40208;39.778;2.710;2022-09-20T01:11:46;4.80;;;2.35;;
54307;SDS011;40208;39.778;2.710;2022-09-20T01:14:38;3.90;;;1.80;;
54307;SDS011;40208;39.778;2.710;2022-09-20T01:17:32;8.75;;;1.98;;
54307;SDS011;40208;39.778;2.710;2022-09-20T01:20:30;4.55;;;1.85;;
54307;SDS011;40208;39.778;2.710;2022-09-20T01:26:51;6.15;;;2.13;;
54307;SDS011;40208;39.778;2.710;2022-09-20T01:35:58;3.97;;;2.25;;
54307;SDS011;40208;39.778;2.710;2022-09-20T01:42:07;4.28;;;1.90;;
54307;SDS011;40208;39.778;2.710;2022-09-20T01:45:13;5.15;;;2.13;;
54307;SDS011;40208;39.778;2.710;2022-09-20T01:48:08;8.88;;;1.77;;
54307;SDS011;40208;39.778;2.710;2022-09-20T02:00:38;5.10;;;2.15;;
54307;SDS011;40208;39.778;2.710;2022-09-20T02:04:19;5.05;;;2.30;;
54307;SDS011;40208;39.778;2.710;2022-09-20T02:10:54;3.92;;;2.15;;
54307;SDS011;40208;39.778;2.710;2022-09-20T02:27:17;5.35;;;1.73;;
54307;SDS011;40208;39.778;2.710;2022-09-20T02:30:22;9.38;;;3.10;;
54307;SDS011;40208;39.778;2.710;2022-09-20T02:39:35;5.40;;;2.30;;
54307;SDS011;40208;39.778;2.710;2022-09-20T02:48:50;4.13;;;1.80;;
54307;SDS011;40208;39.778;2.710;2022-09-20T02:52:02;6.90;;;2.30;;
54307;SDS011;40208;39.778;2.710;2022-09-20T03:01:55;3.53;;;2.10;;
54307;SDS011;40208;39.778;2.710;2022-09-20T03:05:11;5.72;;;2.17;;
54307;SDS011;40208;39.778;2.710;2022-09-20T03:14:19;5.05;;;2.28;;
54307;SDS011;40208;39.778;2.710;2022-09-20T03:21:05;4.32;;;2.00;;
54307;SDS011;40208;39.778;2.710;2022-09-20T03:24:15;6.60;;;3.08;;
54307;SDS011;40208;39.778;2.710;2022-09-20T03:27:19;3.80;;;2.10;;
54307;SDS011;40208;39.778;2.710;2022-09-20T03:30:49;7.88;;;2.92;;
54307;SDS011;40208;39.778;2.710;2022-09-20T03:46:17;5.65;;;2.90;;
54307;SDS011;40208;39.778;2.710;2022-09-20T04:05:54;6.88;;;1.98;;
54307;SDS011;40208;39.778;2.710;2022-09-20T04:22:11;4.53;;;2.30;;
54307;SDS011;40208;39.778;2.710;2022-09-20T04:25:13;4.72;;;2.40;;
54307;SDS011;40208;39.778;2.710;2022-09-20T04:28:22;4.97;;;2.00;;
54307;SDS011;40208;39.778;2.710;2022-09-20T04:34:52;5.68;;;1.90;;
54307;SDS011;40208;39.778;2.710;2022-09-20T04:38:13;7.97;;;2.67;;
54307;SDS011;40208;39.778;2.710;2022-09-20T05:00:06;6.63;;;2.35;;
54307;SDS011;40208;39.778;2.710;2022-09-20T05:19:45;11.38;;;3.53;;
54307;SDS011;40208;39.778;2.710;2022-09-20T05:29:11;6.78;;;2.70;;
54307;SDS011;40208;39.778;2.710;2022-09-20T05:32:17;6.95;;;2.20;;
54307;SDS011;40208;39.778;2.710;2022-09-20T05:35:17;6.97;;;2.50;;
54307;SDS011;40208;39.778;2.710;2022-09-20T05:41:29;13.23;;;3.40;;
54307;SDS011;40208;39.778;2.710;2022-09-20T05:54:46;53.72;;;17.40;;
54307;SDS011;40208;39.778;2.710;2022-09-20T06:00:53;51.83;;;17.17;;
54307;SDS011;40208;39.778;2.710;2022-09-20T06:03:50;41.65;;;15.70;;
54307;SDS011;40208;39.778;2.710;2022-09-20T06:16:28;19.67;;;7.95;;
54307;SDS011;40208;39.778;2.710;2022-09-20T06:22:42;20.10;;;8.57;;
54307;SDS011;40208;39.778;2.710;2022-09-20T06:28:55;30.45;;;12.50;;
54307;SDS011;40208;39.778;2.710;2022-09-20T06:32:00;36.40;;;12.02;;
54307;SDS011;40208;39.778;2.710;2022-09-20T06:34:51;23.70;;;12.85;;
54307;SDS011;40208;39.778;2.710;2022-09-20T06:37:46;32.70;;;12.23;;
54307;SDS011;40208;39.778;2.710;2022-09-20T06:41:11;28.98;;;12.23;;
54307;SDS011;40208;39.778;2.710;2022-09-20T06:44:17;20.50;;;10.52;;
54307;SDS011;40208;39.778;2.710;2022-09-20T06:47:09;23.98;;;10.98;;
54307;SDS011;40208;39.778;2.710;2022-09-20T06:50:00;30.58;;;10.20;;
54307;SDS011;40208;39.778;2.710;2022-09-20T06:52:51;24.10;;;9.82;;
54307;SDS011;40208;39.778;2.710;2022-09-20T06:55:42;19.45;;;7.50;;
54307;SDS011;40208;39.778;2.710;2022-09-20T06:58:34;22.95;;;7.32;;
54307;SDS011;40208;39.778;2.710;2022-09-20T07:01:25;17.30;;;8.27;;
54307;SDS011;40208;39.778;2.710;2022-09-20T07:04:15;38.47;;;17.17;;
54307;SDS011;40208;39.778;2.710;2022-09-20T07:07:06;33.47;;;15.73;;
54307;SDS011;40208;39.778;2.710;2022-09-20T07:09:57;27.63;;;12.55;;
54307;SDS011;40208;39.778;2.710;2022-09-20T07:12:48;17.25;;;8.80;;
54307;SDS011;40208;39.778;2.710;2022-09-20T07:15:39;14.85;;;6.50;;
54307;SDS011;40208;39.778;2.710;2022-09-20T07:18:30;9.35;;;6.28;;
54307;SDS011;40208;39.778;2.710;2022-09-20T07:21:22;13.27;;;6.25;;
54307;SDS011;40208;39.778;2.710;2022-09-20T07:24:13;64.82;;;12.70;;
54307;SDS011;40208;39.778;2.710;2022-09-20T07:27:04;39.22;;;10.05;;
54307;SDS011;40208;39.778;2.710;2022-09-20T07:29:56;21.70;;;9.30;;
54307;SDS011;40208;39.778;2.710;2022-09-20T07:32:48;22.63;;;9.30;;
54307;SDS011;40208;39.778;2.710;2022-09-20T07:35:40;18.48;;;8.60;;
54307;SDS011;40208;39.778;2.710;2022-09-20T07:38:30;25.00;;;8.57;;
54307;SDS011;40208;39.778;2.710;2022-09-20T07:41:21;36.72;;;10.77;;
54307;SDS011;40208;39.778;2.710;2022-09-20T07:44:13;28.77;;;10.13;;
54307;SDS011;40208;39.778;2.710;2022-09-20T07:47:10;32.17;;;11.45;;
54307;SDS011;40208;39.778;2.710;2022-09-20T07:50:04;22.67;;;9.57;;
54307;SDS011;40208;39.778;2.710;2022-09-20T07:52:55;21.45;;;9.40;;
54307;SDS011;40208;39.778;2.710;2022-09-20T07:58:57;26.17;;;9.57;;
54307;SDS011;40208;39.778;2.710;2022-09-20T08:01:47;27.52;;;12.05;;
54307;SDS011;40208;39.778;2.710;2022-09-20T08:04:38;27.17;;;15.52;;
54307;SDS011;40208;39.778;2.710;2022-09-20T08:07:29;38.42;;;15.63;;
54307;SDS011;40208;39.778;2.710;2022-09-20T08:10:20;20.35;;;9.85;;
54307;SDS011;40208;39.778;2.710;2022-09-20T08:13:12;17.65;;;7.70;;
54307;SDS011;40208;39.778;2.710;2022-09-20T08:16:04;11.50;;;6.25;;
54307;SDS011;40208;39.778;2.710;2022-09-20T08:18:57;14.07;;;6.63;;
54307;SDS011;40208;39.778;2.710;2022-09-20T08:21:50;7.13;;;3.35;;
54307;SDS011;40208;39.778;2.710;2022-09-20T08:24:44;9.10;;;3.60;;
54307;SDS011;40208;39.778;2.710;2022-09-20T08:27:36;10.23;;;4.28;;
54307;SDS011;40208;39.778;2.710;2022-09-20T08:30:27;7.60;;;4.03;;
54307;SDS011;40208;39.778;2.710;2022-09-20T08:33:19;17.27;;;8.63;;
54307;SDS011;40208;39.778;2.710;2022-09-20T08:36:11;15.00;;;7.57;;
54307;SDS011;40208;39.778;2.710;2022-09-20T08:39:04;14.18;;;6.72;;
54307;SDS011;40208;39.778;2.710;2022-09-20T08:41:57;17.95;;;6.85;;
54307;SDS011;40208;39.778;2.710;2022-09-20T08:45:04;9.40;;;4.35;;
54307;SDS011;40208;39.778;2.710;2022-09-20T08:48:00;10.93;;;4.82;;
54307;SDS011;40208;39.778;2.710;2022-09-20T08:50:54;8.60;;;2.40;;
54307;SDS011;40208;39.778;2.710;2022-09-20T08:53:50;5.85;;;2.25;;
54307;SDS011;40208;39.778;2.710;2022-09-20T08:56:43;6.20;;;2.58;;
54307;SDS011;40208;39.778;2.710;2022-09-20T08:59:35;5.43;;;2.50;;
54307;SDS011;40208;39.778;2.710;2022-09-20T09:02:28;6.80;;;2.63;;
54307;SDS011;40208;39.778;2.710;2022-09-20T09:11:14;5.45;;;2.58;;
54307;SDS011;40208;39.778;2.710;2022-09-20T09:17:36;6.70;;;2.67;;
54307;SDS011;40208;39.778;2.710;2022-09-20T09:20:26;4.63;;;2.25;;
54307;SDS011;40208;39.778;2.710;2022-09-20T09:23:21;6.50;;;2.50;;
54307;SDS011;40208;39.778;2.710;2022-09-20T09:26:17;5.90;;;2.00;;
54307;SDS011;40208;39.778;2.710;2022-09-20T09:32:22;7.25;;;2.20;;
54307;SDS011;40208;39.778;2.710;2022-09-20T09:35:23;5.65;;;1.95;;
54307;SDS011;40208;39.778;2.710;2022-09-20T09:38:21;6.40;;;2.08;;
54307;SDS011;40208;39.778;2.710;2022-09-20T09:41:24;4.45;;;1.88;;
54307;SDS011;40208;39.778;2.710;2022-09-20T09:44:21;4.63;;;1.92;;
54307;SDS011;40208;39.778;2.710;2022-09-20T09:47:21;6.28;;;1.60;;
54307;SDS011;40208;39.778;2.710;2022-09-20T09:50:21;7.13;;;2.30;;
54307;SDS011;40208;39.778;2.710;2022-09-20T09:53:15;6.13;;;2.15;;
54307;SDS011;40208;39.778;2.710;2022-09-20T10:09:27;9.25;;;1.85;;
54307;SDS011;40208;39.778;2.710;2022-09-20T10:35:07;3.70;;;2.20;;
54307;SDS011;40208;39.778;2.710;2022-09-20T10:38:22;3.75;;;1.60;;
54307;SDS011;40208;39.778;2.710;2022-09-20T10:44:49;5.65;;;2.05;;
54307;SDS011;40208;39.778;2.710;2022-09-20T10:48:03;4.47;;;2.53;;
54307;SDS011;40208;39.778;2.710;2022-09-20T10:51:00;7.20;;;2.15;;
54307;SDS011;40208;39.778;2.710;2022-09-20T10:53:57;10.95;;;4.55;;
54307;SDS011;40208;39.778;2.710;2022-09-20T10:56:53;10.50;;;3.45;;
54307;SDS011;40208;39.778;2.710;2022-09-20T11:06:24;6.65;;;2.90;;
54307;SDS011;40208;39.778;2.710;2022-09-20T11:09:23;5.90;;;2.70;;
54307;SDS011;40208;39.778;2.710;2022-09-20T11:15:23;5.10;;;2.00;;
54307;SDS011;40208;39.778;2.710;2022-09-20T11:18:15;4.50;;;2.10;;
54307;SDS011;40208;39.778;2.710;2022-09-20T11:21:07;3.22;;;1.98;;
54307;SDS011;40208;39.778;2.710;2022-09-20T11:33:00;4.45;;;2.10;;
54307;SDS011;40208;39.778;2.710;2022-09-20T11:35:51;6.00;;;2.03;;
54307;SDS011;40208;39.778;2.710;2022-09-20T11:38:42;4.50;;;1.83;;
54307;SDS011;40208;39.778;2.710;2022-09-20T11:41:30;3.50;;;1.85;;
54307;SDS011;40208;39.778;2.710;2022-09-20T11:44:15;4.07;;;1.80;;
54307;SDS011;40208;39.778;2.710;2022-09-20T11:47:04;3.28;;;1.55;;
54307;SDS011;40208;39.778;2.710;2022-09-20T11:58:56;3.60;;;1.85;;
54307;SDS011;40208;39.778;2.710;2022-09-20T12:01:44;4.07;;;1.63;;
54307;SDS011;40208;39.778;2.710;2022-09-20T12:04:29;4.82;;;1.98;;
54307;SDS011;40208;39.778;2.710;2022-09-20T12:07:19;5.22;;;1.63;;
54307;SDS011;40208;39.778;2.710;2022-09-20T12:10:21;3.33;;;1.83;;
54307;SDS011;40208;39.778;2.710;2022-09-20T12:13:18;5.55;;;1.80;;
54307;SDS011;40208;39.778;2.710;2022-09-20T12:16:12;7.70;;;2.00;;
54307;SDS011;40208;39.778;2.710;2022-09-20T12:19:03;4.30;;;1.73;;
54307;SDS011;40208;39.778;2.710;2022-09-20T12:24:47;4.88;;;1.60;;
54307;SDS011;40208;39.778;2.710;2022-09-20T12:28:12;3.88;;;2.03;;
54307;SDS011;40208;39.778;2.710;2022-09-20T12:39:43;6.72;;;2.00;;
54307;SDS011;40208;39.778;2.710;2022-09-20T12:42:35;4.20;;;1.88;;
54307;SDS011;40208;39.778;2.710;2022-09-20T12:45:20;4.93;;;1.73;;
54307;SDS011;40208;39.778;2.710;2022-09-20T12:48:14;6.85;;;1.70;;
54307;SDS011;40208;39.778;2.710;2022-09-20T12:51:03;2.92;;;1.60;;
54307;SDS011;40208;39.778;2.710;2022-09-20T12:54:16;5.78;;;2.13;;
54307;SDS011;40208;39.778;2.710;2022-09-20T12:57:15;7.65;;;1.80;;
54307;SDS011;40208;39.778;2.710;2022-09-20T13:00:03;5.43;;;2.03;;
54307;SDS011;40208;39.778;2.710;2022-09-20T13:05:37;4.90;;;1.88;;
54307;SDS011;40208;39.778;2.710;2022-09-20T13:08:24;4.30;;;1.70;;
54307;SDS011;40208;39.778;2.710;2022-09-20T13:11:14;5.97;;;2.40;;
54307;SDS011;40208;39.778;2.710;2022-09-20T13:16:55;11.93;;;2.38;;
54307;SDS011;40208;39.778;2.710;2022-09-20T13:19:43;4.03;;;2.05;;
54307;SDS011;40208;39.778;2.710;2022-09-20T13:22:34;9.60;;;2.10;;
54307;SDS011;40208;39.778;2.710;2022-09-20T13:25:21;7.15;;;1.98;;
54307;SDS011;40208;39.778;2.710;2022-09-20T13:28:15;10.00;;;2.05;;
54307;SDS011;40208;39.778;2.710;2022-09-20T13:34:14;6.07;;;1.80;;
54307;SDS011;40208;39.778;2.710;2022-09-20T13:37:13;4.88;;;1.80;;
54307;SDS011;40208;39.778;2.710;2022-09-20T13:40:14;5.72;;;2.05;;
54307;SDS011;40208;39.778;2.710;2022-09-20T13:43:05;4.53;;;1.65;;
54307;SDS011;40208;39.778;2.710;2022-09-20T13:46:12;4.13;;;1.88;;
54307;SDS011;40208;39.778;2.710;2022-09-20T13:49:14;5.10;;;1.70;;
54307;SDS011;40208;39.778;2.710;2022-09-20T13:52:12;7.28;;;1.90;;
54307;SDS011;40208;39.778;2.710;2022-09-20T13:58:31;6.40;;;1.85;;
54307;SDS011;40208;39.778;2.710;2022-09-20T14:01:26;5.55;;;1.63;;
54307;SDS011;40208;39.778;2.710;2022-09-20T14:04:14;7.35;;;2.10;;
54307;SDS011;40208;39.778;2.710;2022-09-20T14:07:02;3.25;;;1.50;;
54307;SDS011;40208;39.778;2.710;2022-09-20T14:09:50;5.70;;;1.83;;
54307;SDS011;40208;39.778;2.710;2022-09-20T14:12:35;5.82;;;1.60;;
54307;SDS011;40208;39.778;2.710;2022-09-20T14:15:21;5.25;;;2.00;;
54307;SDS011;40208;39.778;2.710;2022-09-20T14:18:08;7.22;;;1.80;;
54307;SDS011;40208;39.778;2.710;2022-09-20T14:20:58;4.13;;;1.73;;
54307;SDS011;40208;39.778;2.710;2022-09-20T14:26:38;3.38;;;1.73;;
54307;SDS011;40208;39.778;2.710;2022-09-20T14:32:25;10.68;;;2.38;;
54307;SDS011;40208;39.778;2.710;2022-09-20T14:35:17;6.80;;;1.65;;
54307;SDS011;40208;39.778;2.710;2022-09-20T14:38:07;3.70;;;1.42;;
54307;SDS011;40208;39.778;2.710;2022-09-20T14:40:54;4.53;;;1.85;;
54307;SDS011;40208;39.778;2.710;2022-09-20T14:43:39;4.45;;;1.70;;
54307;SDS011;40208;39.778;2.710;2022-09-20T14:46:29;4.18;;;1.77;;
54307;SDS011;40208;39.778;2.710;2022-09-20T14:55:16;25.75;;;3.35;;
54307;SDS011;40208;39.778;2.710;2022-09-20T14:58:06;25.60;;;3.25;;
54307;SDS011;40208;39.778;2.710;2022-09-20T15:03:49;16.90;;;3.88;;
54307;SDS011;40208;39.778;2.710;2022-09-20T15:06:35;8.30;;;2.05;;
54307;SDS011;40208;39.778;2.710;2022-09-20T15:09:22;7.82;;;1.88;;
54307;SDS011;40208;39.778;2.710;2022-09-20T15:12:14;6.05;;;1.92;;
54307;SDS011;40208;39.778;2.710;2022-09-20T15:15:00;6.15;;;1.73;;
54307;SDS011;40208;39.778;2.710;2022-09-20T15:17:46;5.53;;;1.88;;
54307;SDS011;40208;39.778;2.710;2022-09-20T15:20:32;8.45;;;1.95;;
54307;SDS011;40208;39.778;2.710;2022-09-20T15:23:17;13.80;;;2.13;;
54307;SDS011;40208;39.778;2.710;2022-09-20T15:26:02;16.15;;;2.42;;
54307;SDS011;40208;39.778;2.710;2022-09-20T15:28:47;14.60;;;2.38;;
54307;SDS011;40208;39.778;2.710;2022-09-20T15:31:32;8.40;;;2.05;;
54307;SDS011;40208;39.778;2.710;2022-09-20T15:34:17;8.50;;;2.05;;
54307;SDS011;40208;39.778;2.710;2022-09-20T15:37:02;7.88;;;1.80;;
54307;SDS011;40208;39.778;2.710;2022-09-20T15:39:48;7.07;;;1.67;;
54307;SDS011;40208;39.778;2.710;2022-09-20T15:42:33;8.10;;;2.13;;
54307;SDS011;40208;39.778;2.710;2022-09-20T15:45:24;7.25;;;1.80;;
54307;SDS011;40208;39.778;2.710;2022-09-20T15:48:11;9.25;;;1.67;;
54307;SDS011;40208;39.778;2.710;2022-09-20T15:53:46;13.80;;;2.30;;
54307;SDS011;40208;39.778;2.710;2022-09-20T15:56:38;6.32;;;2.25;;
54307;SDS011;40208;39.778;2.710;2022-09-20T15:59:23;23.95;;;3.17;;
54307;SDS011;40208;39.778;2.710;2022-09-20T16:02:09;9.18;;;2.17;;
54307;SDS011;40208;39.778;2.710;2022-09-20T16:04:55;8.63;;;1.92;;
54307;SDS011;40208;39.778;2.710;2022-09-20T16:07:42;11.45;;;2.42;;
54307;SDS011;40208;39.778;2.710;2022-09-20T16:10:27;6.93;;;2.10;;
54307;SDS011;40208;39.778;2.710;2022-09-20T16:13:12;7.82;;;1.95;;
54307;SDS011;40208;39.778;2.710;2022-09-20T16:15:58;6.22;;;1.75;;
54307;SDS011;40208;39.778;2.710;2022-09-20T16:18:44;9.98;;;2.00;;
54307;SDS011;40208;39.778;2.710;2022-09-20T16:21:51;6.32;;;1.70;;
54307;SDS011;40208;39.778;2.710;2022-09-20T16:24:38;2.83;;;1.17;;
54307;SDS011;40208;39.778;2.710;2022-09-20T16:27:23;5.47;;;2.00;;
54307;SDS011;40208;39.778;2.710;2022-09-20T16:30:07;3.75;;;1.67;;
54307;SDS011;40208;39.778;2.710;2022-09-20T16:32:53;3.95;;;1.80;;
54307;SDS011;40208;39.778;2.710;2022-09-20T16:35:38;11.48;;;2.20;;
54307;SDS011;40208;39.778;2.710;2022-09-20T16:38:23;6.43;;;1.80;;
54307;SDS011;40208;39.778;2.710;2022-09-20T16:41:08;10.05;;;1.90;;
54307;SDS011;40208;39.778;2.710;2022-09-20T16:43:53;4.10;;;1.60;;
54307;SDS011;40208;39.778;2.710;2022-09-20T16:46:39;5.47;;;1.50;;
54307;SDS011;40208;39.778;2.710;2022-09-20T16:49:24;9.05;;;2.38;;
54307;SDS011;40208;39.778;2.710;2022-09-20T16:52:12;4.25;;;1.70;;
54307;SDS011;40208;39.778;2.710;2022-09-20T16:54:57;5.78;;;2.55;;
54307;SDS011;40208;39.778;2.710;2022-09-20T16:57:42;4.95;;;1.73;;
54307;SDS011;40208;39.778;2.710;2022-09-20T17:00:27;11.25;;;2.08;;
54307;SDS011;40208;39.778;2.710;2022-09-20T17:03:12;5.47;;;1.95;;
54307;SDS011;40208;39.778;2.710;2022-09-20T17:06:00;7.90;;;1.80;;
54307;SDS011;40208;39.778;2.710;2022-09-20T17:08:52;3.25;;;1.80;;
54307;SDS011;40208;39.778;2.710;2022-09-20T17:11:45;6.95;;;2.00;;
54307;SDS011;40208;39.778;2.710;2022-09-20T17:14:32;8.27;;;1.83;;
54307;SDS011;40208;39.778;2.710;2022-09-20T17:17:17;7.93;;;2.10;;
54307;SDS011;40208;39.778;2.710;2022-09-20T17:20:05;4.80;;;1.85;;
54307;SDS011;40208;39.778;2.710;2022-09-20T17:22:51;9.60;;;1.73;;
54307;SDS011;40208;39.778;2.710;2022-09-20T17:25:37;6.63;;;1.70;;
54307;SDS011;40208;39.778;2.710;2022-09-20T17:28:26;6.63;;;1.80;;
54307;SDS011;40208;39.778;2.710;2022-09-20T17:31:11;4.65;;;2.10;;
54307;SDS011;40208;39.778;2.710;2022-09-20T17:34:08;5.80;;;2.03;;
54307;SDS011;40208;39.778;2.710;2022-09-20T17:36:54;17.08;;;1.75;;
54307;SDS011;40208;39.778;2.710;2022-09-20T17:39:39;8.13;;;1.75;;
54307;SDS011;40208;39.778;2.710;2022-09-20T17:42:24;9.70;;;2.42;;
54307;SDS011;40208;39.778;2.710;2022-09-20T17:45:10;8.93;;;1.75;;
54307;SDS011;40208;39.778;2.710;2022-09-20T17:47:55;12.18;;;1.92;;
54307;SDS011;40208;39.778;2.710;2022-09-20T17:50:41;6.38;;;2.25;;
54307;SDS011;40208;39.778;2.710;2022-09-20T17:53:28;10.02;;;1.77;;
54307;SDS011;40208;39.778;2.710;2022-09-20T17:56:15;6.53;;;1.70;;
54307;SDS011;40208;39.778;2.710;2022-09-20T17:59:00;11.20;;;2.28;;
54307;SDS011;40208;39.778;2.710;2022-09-20T18:01:47;7.75;;;2.22;;
54307;SDS011;40208;39.778;2.710;2022-09-20T18:04:34;6.70;;;1.90;;
54307;SDS011;40208;39.778;2.710;2022-09-20T18:07:19;8.00;;;2.20;;
54307;SDS011;40208;39.778;2.710;2022-09-20T18:10:04;11.55;;;2.38;;
54307;SDS011;40208;39.778;2.710;2022-09-20T18:12:50;6.88;;;2.20;;
54307;SDS011;40208;39.778;2.710;2022-09-20T18:15:35;8.55;;;2.08;;
54307;SDS011;40208;39.778;2.710;2022-09-20T18:18:20;15.27;;;2.38;;
54307;SDS011;40208;39.778;2.710;2022-09-20T18:21:09;12.13;;;2.90;;
54307;SDS011;40208;39.778;2.710;2022-09-20T18:23:58;10.45;;;3.00;;
54307;SDS011;40208;39.778;2.710;2022-09-20T18:26:43;12.68;;;2.45;;
54307;SDS011;40208;39.778;2.710;2022-09-20T18:29:28;10.85;;;2.60;;
54307;SDS011;40208;39.778;2.710;2022-09-20T18:32:16;9.45;;;2.90;;
54307;SDS011;40208;39.778;2.710;2022-09-20T18:35:01;12.82;;;2.47;;
54307;SDS011;40208;39.778;2.710;2022-09-20T18:37:47;6.63;;;2.20;;
54307;SDS011;40208;39.778;2.710;2022-09-20T18:40:32;10.57;;;2.70;;
54307;SDS011;40208;39.778;2.710;2022-09-20T18:43:19;5.35;;;2.40;;
54307;SDS011;40208;39.778;2.710;2022-09-20T18:46:04;17.70;;;3.38;;
54307;SDS011;40208;39.778;2.710;2022-09-20T18:48:50;14.57;;;3.05;;
54307;SDS011;40208;39.778;2.710;2022-09-20T18:51:36;10.35;;;3.00;;
54307;SDS011;40208;39.778;2.710;2022-09-20T18:54:21;16.70;;;3.20;;
54307;SDS011;40208;39.778;2.710;2022-09-20T18:57:07;6.28;;;3.10;;
54307;SDS011;40208;39.778;2.710;2022-09-20T18:59:53;10.73;;;2.40;;
54307;SDS011;40208;39.778;2.710;2022-09-20T19:05:33;6.10;;;2.10;;
54307;SDS011;40208;39.778;2.710;2022-09-20T19:08:30;5.95;;;2.55;;
54307;SDS011;40208;39.778;2.710;2022-09-20T19:11:30;7.10;;;2.70;;
54307;SDS011;40208;39.778;2.710;2022-09-20T19:14:22;8.98;;;2.63;;
54307;SDS011;40208;39.778;2.710;2022-09-20T19:17:44;10.93;;;3.10;;
54307;SDS011;40208;39.778;2.710;2022-09-20T19:26:44;10.25;;;2.60;;
54307;SDS011;40208;39.778;2.710;2022-09-20T19:29:29;12.02;;;3.25;;
54307;SDS011;40208;39.778;2.710;2022-09-20T19:32:15;6.18;;;3.08;;
54307;SDS011;40208;39.778;2.710;2022-09-20T19:35:04;9.75;;;2.85;;
54307;SDS011;40208;39.778;2.710;2022-09-20T19:38:02;6.45;;;3.03;;
54307;SDS011;40208;39.778;2.710;2022-09-20T19:47:15;10.15;;;2.65;;
54307;SDS011;40208;39.778;2.710;2022-09-20T19:53:17;11.18;;;2.92;;
54307;SDS011;40208;39.778;2.710;2022-09-20T19:56:17;6.63;;;2.17;;
54307;SDS011;40208;39.778;2.710;2022-09-20T19:59:09;9.55;;;2.63;;
54307;SDS011;40208;39.778;2.710;2022-09-20T20:01:56;12.73;;;2.60;;
54307;SDS011;40208;39.778;2.710;2022-09-20T20:04:41;8.80;;;3.13;;
54307;SDS011;40208;39.778;2.710;2022-09-20T20:17:04;11.20;;;2.72;;
54307;SDS011;40208;39.778;2.710;2022-09-20T20:26:19;9.52;;;3.03;;
54307;SDS011;40208;39.778;2.710;2022-09-20T20:29:07;11.35;;;2.90;;
54307;SDS011;40208;39.778;2.710;2022-09-20T20:31:53;10.02;;;2.28;;
54307;SDS011;40208;39.778;2.710;2022-09-20T20:34:37;8.50;;;2.85;;
54307;SDS011;40208;39.778;2.710;2022-09-20T20:37:22;14.02;;;2.78;;
54307;SDS011;40208;39.778;2.710;2022-09-20T20:40:09;12.70;;;2.92;;
54307;SDS011;40208;39.778;2.710;2022-09-20T20:42:57;6.93;;;2.80;;
54307;SDS011;40208;39.778;2.710;2022-09-20T20:45:48;7.13;;;2.90;;
54307;SDS011;40208;39.778;2.710;2022-09-20T20:48:34;6.97;;;2.93;;
54307;SDS011;40208;39.778;2.710;2022-09-20T20:51:20;4.28;;;2.20;;
54307;SDS011;40208;39.778;2.710;2022-09-20T20:54:06;6.93;;;2.60;;
54307;SDS011;40208;39.778;2.710;2022-09-20T20:56:50;6.93;;;2.55;;
54307;SDS011;40208;39.778;2.710;2022-09-20T20:59:35;5.35;;;2.30;;
54307;SDS011;40208;39.778;2.710;2022-09-20T21:02:20;7.50;;;2.90;;
54307;SDS011;40208;39.778;2.710;2022-09-20T21:05:05;6.10;;;2.85;;
54307;SDS011;40208;39.778;2.710;2022-09-20T21:07:51;15.57;;;2.88;;
54307;SDS011;40208;39.778;2.710;2022-09-20T21:10:36;7.32;;;2.65;;
54307;SDS011;40208;39.778;2.710;2022-09-20T21:13:21;7.03;;;2.10;;
54307;SDS011;40208;39.778;2.710;2022-09-20T21:16:10;9.93;;;2.65;;
54307;SDS011;40208;39.778;2.710;2022-09-20T21:18:57;10.05;;;2.88;;
54307;SDS011;40208;39.778;2.710;2022-09-20T21:21:43;6.05;;;2.70;;
54307;SDS011;40208;39.778;2.710;2022-09-20T21:24:29;7.68;;;2.28;;
54307;SDS011;40208;39.778;2.710;2022-09-20T21:27:14;10.70;;;2.75;;
54307;SDS011;40208;39.778;2.710;2022-09-20T21:29:59;4.93;;;2.30;;
54307;SDS011;40208;39.778;2.710;2022-09-20T21:32:44;7.45;;;2.70;;
54307;SDS011;40208;39.778;2.710;2022-09-20T21:35:29;8.65;;;2.30;;
54307;SDS011;40208;39.778;2.710;2022-09-20T21:38:14;8.13;;;2.83;;
54307;SDS011;40208;39.778;2.710;2022-09-20T21:43:55;8.82;;;2.95;;
54307;SDS011;40208;39.778;2.710;2022-09-20T21:46:43;6.25;;;2.92;;
54307;SDS011;40208;39.778;2.710;2022-09-20T21:49:28;18.90;;;3.53;;
54307;SDS011;40208;39.778;2.710;2022-09-20T21:52:13;6.28;;;2.78;;
54307;SDS011;40208;39.778;2.710;2022-09-20T21:54:58;6.68;;;2.85;;
54307;SDS011;40208;39.778;2.710;2022-09-20T21:57:43;9.10;;;3.03;;
54307;SDS011;40208;39.778;2.710;2022-09-20T22:00:28;7.47;;;2.50;;
54307;SDS011;40208;39.778;2.710;2022-09-20T22:03:13;7.72;;;2.78;;
54307;SDS011;40208;39.778;2.710;2022-09-20T22:08:58;8.32;;;2.58;;
54307;SDS011;40208;39.778;2.710;2022-09-20T22:11:45;8.38;;;2.95;;
54307;SDS011;40208;39.778;2.710;2022-09-20T22:14:32;6.70;;;2.70;;
54307;SDS011;40208;39.778;2.710;2022-09-20T22:17:18;9.30;;;2.70;;
54307;SDS011;40208;39.778;2.710;2022-09-20T22:20:04;5.95;;;2.60;;
54307;SDS011;40208;39.778;2.710;2022-09-20T22:22:49;8.05;;;3.00;;
54307;SDS011;40208;39.778;2.710;2022-09-20T22:25:34;7.93;;;2.67;;
54307;SDS011;40208;39.778;2.710;2022-09-20T22:28:19;8.90;;;2.20;;
54307;SDS011;40208;39.778;2.710;2022-09-20T22:31:08;8.23;;;2.50;;
54307;SDS011;40208;39.778;2.710;2022-09-20T22:33:58;5.47;;;2.75;;
54307;SDS011;40208;39.778;2.710;2022-09-20T22:36:47;12.68;;;2.97;;
54307;SDS011;40208;39.778;2.710;2022-09-20T22:39:32;10.82;;;2.45;;
54307;SDS011;40208;39.778;2.710;2022-09-20T22:42:17;8.00;;;3.03;;
54307;SDS011;40208;39.778;2.710;2022-09-20T22:45:04;7.25;;;2.58;;
54307;SDS011;40208;39.778;2.710;2022-09-20T22:47:49;6.88;;;2.70;;
54307;SDS011;40208;39.778;2.710;2022-09-20T22:50:34;5.57;;;2.42;;
54307;SDS011;40208;39.778;2.710;2022-09-20T22:53:19;4.07;;;2.45;;
54307;SDS011;40208;39.778;2.710;2022-09-20T22:56:11;10.70;;;2.75;;
54307;SDS011;40208;39.778;2.710;2022-09-20T23:04:35;4.10;;;2.22;;
54307;SDS011;40208;39.778;2.710;2022-09-20T23:07:20;8.05;;;2.72;;
54307;SDS011;40208;39.778;2.710;2022-09-20T23:10:05;6.25;;;2.90;;